Time,TemperatureF,DewpointF,PressureIn,WindDirection,WindDirectionDegrees,WindSpeedMPH,WindSpeedGustMPH,Humidity,HourlyPrecipIn,Conditions,Clouds,dailyrainin,SolarRadiationWatts/m^2,SoftwareType,DateUTC
2013-02-13 00:02:00,44.0,34.0,-100.00,NW,310,11.0,24.0,69,0.00,,,0.01,0.000000,,2013-02-13 06:02:00,
2013-02-13 00:11:00,44.0,34.0,-100.00,NW,310,11.0,24.0,69,0.00,,,0.01,0.000000,,2013-02-13 06:11:00,
2013-02-13 00:21:00,44.0,34.0,-100.00,NW,310,11.0,24.0,69,0.00,,,0.01,0.000000,,2013-02-13 06:21:00,
2013-02-13 00:32:00,44.0,34.0,-100.00,NW,310,11.0,24.0,69,0.00,,,0.01,0.000000,,2013-02-13 06:32:00,
2013-02-13 01:02:00,41.0,32.0,-100.00,NW,315,12.0,22.0,69,0.00,,,0.01,0.000000,,2013-02-13 07:02:00,
2013-02-13 01:11:00,41.0,32.0,-100.00,NW,315,12.0,22.0,69,0.00,,,0.01,0.000000,,2013-02-13 07:11:00,
2013-02-13 01:22:00,41.0,32.0,-100.00,NW,315,12.0,22.0,69,0.00,,,0.01,0.000000,,2013-02-13 07:22:00,
2013-02-13 01:32:00,41.0,32.0,-100.00,NW,315,12.0,22.0,69,0.00,,,0.01,0.000000,,2013-02-13 07:32:00,
2013-02-13 02:01:00,38.0,31.0,-100.00,WNW,289,6.0,14.0,76,0.00,,,0.01,0.000000,,2013-02-13 08:01:00,
2013-02-13 02:11:00,38.0,31.0,-100.00,WNW,289,6.0,14.0,76,0.00,,,0.01,0.000000,,2013-02-13 08:11:00,
2013-02-13 02:21:00,38.0,31.0,-100.00,WNW,289,6.0,14.0,76,0.00,,,0.01,0.000000,,2013-02-13 08:21:00,
2013-02-13 02:32:00,38.0,31.0,-100.00,WNW,289,6.0,14.0,76,0.00,,,0.01,0.000000,,2013-02-13 08:32:00,
2013-02-13 03:01:00,37.0,31.0,-100.00,West,274,8.0,11.0,78,0.00,,,0.01,0.000000,,2013-02-13 09:01:00,
2013-02-13 03:11:00,37.0,31.0,-100.00,West,274,8.0,11.0,78,0.00,,,0.01,0.000000,,2013-02-13 09:11:00,
2013-02-13 03:21:00,37.0,31.0,-100.00,West,274,8.0,11.0,78,0.00,,,0.01,0.000000,,2013-02-13 09:21:00,
2013-02-13 03:31:00,37.0,31.0,-100.00,West,274,8.0,11.0,78,0.00,,,0.01,0.000000,,2013-02-13 09:31:00,
2013-02-13 03:52:00,36.0,31.0,-100.00,WNW,294,6.0,10.0,83,0.00,,,0.01,0.000000,,2013-02-13 09:52:00,
2013-02-13 04:01:00,36.0,31.0,-100.00,WNW,294,6.0,10.0,83,0.00,,,0.01,0.000000,,2013-02-13 10:01:00,
2013-02-13 04:11:00,36.0,31.0,-100.00,WNW,294,6.0,10.0,83,0.00,,,0.01,0.000000,,2013-02-13 10:11:00,
2013-02-13 04:21:00,36.0,31.0,-100.00,WNW,294,6.0,10.0,83,0.00,,,0.01,0.000000,,2013-02-13 10:21:00,
2013-02-13 04:32:00,36.0,31.0,-100.00,WNW,294,6.0,10.0,83,0.00,,,0.01,0.000000,,2013-02-13 10:32:00,
2013-02-13 05:01:00,37.0,32.0,-100.00,NW,326,11.0,18.0,81,0.00,,,0.00,0.000000,,2013-02-13 11:01:00,
2013-02-13 05:11:00,37.0,32.0,-100.00,NW,326,11.0,18.0,81,0.00,,,0.00,0.000000,,2013-02-13 11:11:00,
2013-02-13 05:22:00,37.0,32.0,-100.00,NW,326,11.0,18.0,81,0.00,,,0.00,0.000000,,2013-02-13 11:22:00,
2013-02-13 05:32:00,37.0,32.0,-100.00,NW,326,11.0,18.0,81,0.00,,,0.00,0.000000,,2013-02-13 11:32:00,
2013-02-13 05:52:00,37.0,31.0,-100.00,NW,326,9.0,16.0,80,0.00,,,0.00,0.000000,,2013-02-13 11:52:00,
2013-02-13 06:02:00,37.0,31.0,-100.00,NW,326,9.0,16.0,80,0.00,,,0.00,0.000000,,2013-02-13 12:02:00,
2013-02-13 06:11:00,37.0,31.0,-100.00,NW,326,9.0,16.0,80,0.00,,,0.00,0.000000,,2013-02-13 12:11:00,
2013-02-13 06:22:00,37.0,31.0,-100.00,NW,326,9.0,16.0,80,0.00,,,0.00,0.000000,,2013-02-13 12:22:00,
2013-02-13 06:32:00,37.0,31.0,-100.00,NW,326,9.0,16.0,80,0.00,,,0.00,0.000000,,2013-02-13 12:32:00,
2013-02-13 07:02:00,36.0,32.0,-100.00,NW,306,8.0,12.0,85,0.00,,,0.00,0.000000,,2013-02-13 13:02:00,
2013-02-13 07:11:00,36.0,32.0,-100.00,NW,306,8.0,12.0,85,0.00,,,0.00,0.000000,,2013-02-13 13:11:00,
2013-02-13 07:21:00,36.0,32.0,-100.00,NW,306,8.0,12.0,85,0.00,,,0.00,0.000000,,2013-02-13 13:21:00,
2013-02-13 07:32:00,36.0,32.0,-100.00,NW,306,8.0,12.0,85,0.00,,,0.00,0.000000,,2013-02-13 13:32:00,
2013-02-13 08:01:00,35.0,32.0,-100.00,WNW,301,9.0,12.0,89,0.00,,,0.00,6.000000,,2013-02-13 14:01:00,
2013-02-13 08:11:00,35.0,32.0,-100.00,WNW,301,9.0,12.0,89,0.00,,,0.00,6.000000,,2013-02-13 14:11:00,
2013-02-13 08:21:00,35.0,32.0,-100.00,WNW,301,9.0,12.0,89,0.00,,,0.00,6.000000,,2013-02-13 14:21:00,
2013-02-13 08:31:00,35.0,32.0,-100.00,WNW,301,9.0,12.0,89,0.00,,,0.00,6.000000,,2013-02-13 14:31:00,
2013-02-13 09:01:00,39.0,33.0,-100.00,NW,312,11.0,14.0,78,0.00,,,0.00,141.000000,,2013-02-13 15:01:00,
2013-02-13 09:11:00,39.0,33.0,-100.00,NW,312,11.0,14.0,78,0.00,,,0.00,141.000000,,2013-02-13 15:11:00,
2013-02-13 09:21:00,39.0,33.0,-100.00,NW,312,11.0,14.0,78,0.00,,,0.00,141.000000,,2013-02-13 15:21:00,
2013-02-13 09:32:00,39.0,33.0,-100.00,NW,312,11.0,14.0,78,0.00,,,0.00,141.000000,,2013-02-13 15:32:00,
2013-02-13 10:01:00,44.0,33.0,-100.00,NNW,330,10.0,19.0,65,0.00,,,0.00,338.000000,,2013-02-13 16:01:00,
2013-02-13 10:11:00,44.0,33.0,-100.00,NNW,330,10.0,19.0,65,0.00,,,0.00,338.000000,,2013-02-13 16:11:00,
2013-02-13 10:21:00,44.0,33.0,-100.00,NNW,330,10.0,19.0,65,0.00,,,0.00,338.000000,,2013-02-13 16:21:00,
2013-02-13 10:31:00,44.0,33.0,-100.00,NNW,330,10.0,19.0,65,0.00,,,0.00,338.000000,,2013-02-13 16:31:00,
2013-02-13 11:01:00,47.0,33.0,-100.00,NW,325,13.0,19.0,57,0.00,,,0.00,517.000000,,2013-02-13 17:01:00,
2013-02-13 11:11:00,47.0,33.0,-100.00,NW,325,13.0,19.0,57,0.00,,,0.00,517.000000,,2013-02-13 17:11:00,
2013-02-13 11:21:00,47.0,33.0,-100.00,NW,325,13.0,19.0,57,0.00,,,0.00,517.000000,,2013-02-13 17:21:00,
2013-02-13 11:31:00,47.0,33.0,-100.00,NW,325,13.0,19.0,57,0.00,,,0.00,517.000000,,2013-02-13 17:31:00,
2013-02-13 12:02:00,51.0,33.0,-100.00,NNW,328,9.0,17.0,50,0.00,,,0.00,651.000000,,2013-02-13 18:02:00,
2013-02-13 12:11:00,51.0,33.0,-100.00,NNW,328,9.0,17.0,50,0.00,,,0.00,651.000000,,2013-02-13 18:11:00,
2013-02-13 12:23:00,51.0,33.0,-100.00,NNW,328,9.0,17.0,50,0.00,,,0.00,651.000000,,2013-02-13 18:23:00,
2013-02-13 12:32:00,51.0,33.0,-100.00,NNW,328,9.0,17.0,50,0.00,,,0.00,651.000000,,2013-02-13 18:32:00,
2013-02-13 13:01:00,54.0,33.0,-100.00,North,3,8.0,16.0,44,0.00,,,0.00,727.000000,,2013-02-13 19:01:00,
2013-02-13 13:11:00,54.0,33.0,-100.00,North,3,8.0,16.0,44,0.00,,,0.00,727.000000,,2013-02-13 19:11:00,
2013-02-13 13:21:00,54.0,33.0,-100.00,North,3,8.0,16.0,44,0.00,,,0.00,727.000000,,2013-02-13 19:21:00,
2013-02-13 13:31:00,54.0,33.0,-100.00,North,3,8.0,16.0,44,0.00,,,0.00,727.000000,,2013-02-13 19:31:00,
2013-02-13 14:02:00,56.0,31.0,-100.00,North,3,8.0,15.0,39,0.00,,,0.00,739.000000,,2013-02-13 20:02:00,
2013-02-13 14:11:00,56.0,31.0,-100.00,North,3,8.0,15.0,39,0.00,,,0.00,739.000000,,2013-02-13 20:11:00,
2013-02-13 14:21:00,56.0,31.0,-100.00,North,3,8.0,15.0,39,0.00,,,0.00,739.000000,,2013-02-13 20:21:00,
2013-02-13 14:31:00,56.0,31.0,-100.00,North,3,8.0,15.0,39,0.00,,,0.00,739.000000,,2013-02-13 20:31:00,
2013-02-13 15:01:00,58.0,28.0,-100.00,WNW,300,7.0,16.0,31,0.00,,,0.00,685.000000,,2013-02-13 21:01:00,
2013-02-13 15:11:00,58.0,28.0,-100.00,WNW,300,7.0,16.0,31,0.00,,,0.00,685.000000,,2013-02-13 21:11:00,
2013-02-13 15:21:00,58.0,28.0,-100.00,WNW,300,7.0,16.0,31,0.00,,,0.00,685.000000,,2013-02-13 21:21:00,
2013-02-13 15:31:00,58.0,28.0,-100.00,WNW,300,7.0,16.0,31,0.00,,,0.00,685.000000,,2013-02-13 21:31:00,
2013-02-13 16:02:00,59.0,28.0,-100.00,NW,315,8.0,15.0,30,0.00,,,0.00,569.000000,,2013-02-13 22:02:00,
2013-02-13 16:11:00,59.0,28.0,-100.00,NW,315,8.0,15.0,30,0.00,,,0.00,569.000000,,2013-02-13 22:11:00,
2013-02-13 16:21:00,59.0,28.0,-100.00,NW,315,8.0,15.0,30,0.00,,,0.00,569.000000,,2013-02-13 22:21:00,
2013-02-13 16:31:00,59.0,28.0,-100.00,NW,315,8.0,15.0,30,0.00,,,0.00,569.000000,,2013-02-13 22:31:00,
2013-02-13 17:01:00,59.0,25.0,-100.00,WNW,295,6.0,13.0,27,0.00,,,0.00,407.000000,,2013-02-13 23:01:00,
2013-02-13 17:11:00,59.0,25.0,-100.00,WNW,295,6.0,13.0,27,0.00,,,0.00,407.000000,,2013-02-13 23:11:00,
2013-02-13 17:21:00,59.0,25.0,-100.00,WNW,295,6.0,13.0,27,0.00,,,0.00,407.000000,,2013-02-13 23:21:00,
2013-02-13 17:32:00,59.0,25.0,-100.00,WNW,295,6.0,13.0,27,0.00,,,0.00,407.000000,,2013-02-13 23:32:00,
2013-02-13 18:02:00,59.0,26.0,-100.00,NW,323,3.0,11.0,28,0.00,,,0.00,216.000000,,2013-02-14 00:02:00,
2013-02-13 18:11:00,59.0,26.0,-100.00,NW,323,3.0,11.0,28,0.00,,,0.00,216.000000,,2013-02-14 00:11:00,
2013-02-13 18:21:00,59.0,26.0,-100.00,NW,323,3.0,11.0,28,0.00,,,0.00,216.000000,,2013-02-14 00:21:00,
2013-02-13 18:32:00,59.0,26.0,-100.00,NW,323,3.0,11.0,28,0.00,,,0.00,216.000000,,2013-02-14 00:32:00,
2013-02-13 19:01:00,54.0,25.0,-100.00,North,7,3.0,6.0,32,0.00,,,0.00,37.000000,,2013-02-14 01:01:00,
2013-02-13 19:11:00,54.0,25.0,-100.00,North,7,3.0,6.0,32,0.00,,,0.00,37.000000,,2013-02-14 01:11:00,
2013-02-13 19:21:00,54.0,25.0,-100.00,North,7,3.0,6.0,32,0.00,,,0.00,37.000000,,2013-02-14 01:21:00,
2013-02-13 19:31:00,54.0,25.0,-100.00,North,7,3.0,6.0,32,0.00,,,0.00,37.000000,,2013-02-14 01:31:00,
2013-02-13 20:01:00,51.0,29.0,-100.00,ENE,76,5.0,7.0,42,0.00,,,0.00,0.000000,,2013-02-14 02:01:00,
2013-02-13 20:11:00,51.0,29.0,-100.00,ENE,76,5.0,7.0,42,0.00,,,0.00,0.000000,,2013-02-14 02:11:00,
2013-02-13 20:21:00,51.0,29.0,-100.00,ENE,76,5.0,7.0,42,0.00,,,0.00,0.000000,,2013-02-14 02:21:00,
2013-02-13 20:31:00,51.0,29.0,-100.00,ENE,76,5.0,7.0,42,0.00,,,0.00,0.000000,,2013-02-14 02:31:00,
2013-02-13 21:02:00,49.0,29.0,-100.00,East,84,3.0,7.0,45,0.00,,,0.00,0.000000,,2013-02-14 03:02:00,
2013-02-13 21:11:00,49.0,29.0,-100.00,East,84,3.0,7.0,45,0.00,,,0.00,0.000000,,2013-02-14 03:11:00,
2013-02-13 21:22:00,49.0,29.0,-100.00,East,84,3.0,7.0,45,0.00,,,0.00,0.000000,,2013-02-14 03:22:00,
2013-02-13 21:31:00,49.0,29.0,-100.00,East,84,3.0,7.0,45,0.00,,,0.00,0.000000,,2013-02-14 03:31:00,
2013-02-13 22:01:00,47.0,30.0,-100.00,East,98,5.0,10.0,52,0.00,,,0.00,0.000000,,2013-02-14 04:01:00,
2013-02-13 22:12:00,47.0,30.0,-100.00,East,98,5.0,10.0,52,0.00,,,0.00,0.000000,,2013-02-14 04:12:00,
2013-02-13 22:21:00,47.0,30.0,-100.00,East,98,5.0,10.0,52,0.00,,,0.00,0.000000,,2013-02-14 04:21:00,
2013-02-13 22:31:00,47.0,30.0,-100.00,East,98,5.0,10.0,52,0.00,,,0.00,0.000000,,2013-02-14 04:31:00,
2013-02-13 23:02:00,46.0,34.0,-100.00,ESE,118,4.0,10.0,63,0.00,,,0.00,0.000000,,2013-02-14 05:02:00,
2013-02-13 23:11:00,46.0,34.0,-100.00,ESE,118,4.0,10.0,63,0.00,,,0.00,0.000000,,2013-02-14 05:11:00,
2013-02-13 23:21:00,46.0,34.0,-100.00,ESE,118,4.0,10.0,63,0.00,,,0.00,0.000000,,2013-02-14 05:21:00,
2013-02-13 23:31:00,46.0,34.0,-100.00,ESE,118,4.0,10.0,63,0.00,,,0.00,0.000000,,2013-02-14 05:31:00,